Archival Weather

Rochelle Muni/Koritz Fld

Rochelle, Illinois (KRPJ)

Report from: Sunday, February 5, 2023 12:15 PM CST
Current time: Wednesday, May 29, 2024 4:05 AM CDT

Current weather – Weather history – Daily summaries
Weather forecast

Temperature1.5°C (34.7°F)
Wind chill-4.1°C (24.7°F)
Dew point-1.2°C (29.8°F)
Winds 14 kts (7.2 m/s, 16.1 mph) West (280°)
Visibility10 mi. (16.1 km)
Clouds Sky clear
Altimeter29.92 in.Hg (1013 mB)
Relative humidity82 %
Density altitude-1,557 ft. (-475 m)
Remarks Fully automated report
Automated weather observing station with precipitation discriminator
Lightning detection system not operating
Flight conditions Visual Meteorological Conditions
Raw dataKRPJ 051815Z AUTO 28014KT 10SM CLR 02/M01 A2992 RMK AO2 T00151012 TSNO
An error has occurred. This application may no longer respond until reloaded. Reload 🗙